sensor_id;sensor_type;location;lat;lon;timestamp;P1;durP1;ratioP1;P2;durP2;ratioP2
6997;SDS011;3539;47.982;12.238;2023-09-30T00:00:10;11.60;;;5.40;;
6997;SDS011;3539;47.982;12.238;2023-09-30T00:02:37;14.80;;;6.23;;
6997;SDS011;3539;47.982;12.238;2023-09-30T00:05:06;13.63;;;6.20;;
6997;SDS011;3539;47.982;12.238;2023-09-30T00:07:35;10.60;;;5.97;;
6997;SDS011;3539;47.982;12.238;2023-09-30T00:10:02;9.67;;;5.40;;
6997;SDS011;3539;47.982;12.238;2023-09-30T00:12:30;11.13;;;5.60;;
6997;SDS011;3539;47.982;12.238;2023-09-30T00:14:56;11.83;;;6.00;;
6997;SDS011;3539;47.982;12.238;2023-09-30T00:17:23;14.73;;;5.70;;
6997;SDS011;3539;47.982;12.238;2023-09-30T00:19:50;9.50;;;5.10;;
6997;SDS011;3539;47.982;12.238;2023-09-30T00:22:18;13.77;;;5.90;;
6997;SDS011;3539;47.982;12.238;2023-09-30T00:24:45;11.47;;;5.80;;
6997;SDS011;3539;47.982;12.238;2023-09-30T00:27:12;13.50;;;6.27;;
6997;SDS011;3539;47.982;12.238;2023-09-30T00:29:39;10.80;;;5.53;;
6997;SDS011;3539;47.982;12.238;2023-09-30T00:32:06;11.10;;;6.10;;
6997;SDS011;3539;47.982;12.238;2023-09-30T00:34:33;10.10;;;5.37;;
6997;SDS011;3539;47.982;12.238;2023-09-30T00:37:00;10.20;;;5.03;;
6997;SDS011;3539;47.982;12.238;2023-09-30T00:39:29;10.93;;;5.50;;
6997;SDS011;3539;47.982;12.238;2023-09-30T00:41:56;12.43;;;5.77;;
6997;SDS011;3539;47.982;12.238;2023-09-30T00:44:24;12.87;;;5.73;;
6997;SDS011;3539;47.982;12.238;2023-09-30T00:46:51;12.57;;;6.10;;
6997;SDS011;3539;47.982;12.238;2023-09-30T00:49:18;12.73;;;5.80;;
6997;SDS011;3539;47.982;12.238;2023-09-30T00:51:45;9.63;;;5.37;;
6997;SDS011;3539;47.982;12.238;2023-09-30T00:54:12;12.77;;;6.10;;
6997;SDS011;3539;47.982;12.238;2023-09-30T00:56:42;11.80;;;6.27;;
6997;SDS011;3539;47.982;12.238;2023-09-30T00:59:10;13.97;;;6.60;;
6997;SDS011;3539;47.982;12.238;2023-09-30T01:01:37;10.93;;;5.70;;
6997;SDS011;3539;47.982;12.238;2023-09-30T01:04:04;12.13;;;6.43;;
6997;SDS011;3539;47.982;12.238;2023-09-30T01:06:32;10.60;;;5.60;;
6997;SDS011;3539;47.982;12.238;2023-09-30T01:08:59;10.33;;;5.67;;
6997;SDS011;3539;47.982;12.238;2023-09-30T01:11:25;14.07;;;6.57;;
6997;SDS011;3539;47.982;12.238;2023-09-30T01:13:54;11.40;;;6.17;;
6997;SDS011;3539;47.982;12.238;2023-09-30T01:16:21;13.10;;;5.93;;
6997;SDS011;3539;47.982;12.238;2023-09-30T01:18:48;11.23;;;5.67;;
6997;SDS011;3539;47.982;12.238;2023-09-30T01:21:15;14.20;;;6.80;;
6997;SDS011;3539;47.982;12.238;2023-09-30T01:23:44;12.53;;;5.73;;
6997;SDS011;3539;47.982;12.238;2023-09-30T01:26:12;13.60;;;6.50;;
6997;SDS011;3539;47.982;12.238;2023-09-30T01:28:40;10.13;;;5.83;;
6997;SDS011;3539;47.982;12.238;2023-09-30T01:31:07;13.07;;;6.82;;
6997;SDS011;3539;47.982;12.238;2023-09-30T01:33:34;12.47;;;6.30;;
6997;SDS011;3539;47.982;12.238;2023-09-30T01:36:01;11.13;;;6.00;;
6997;SDS011;3539;47.982;12.238;2023-09-30T01:38:28;12.40;;;6.70;;
6997;SDS011;3539;47.982;12.238;2023-09-30T01:40:56;14.97;;;7.37;;
6997;SDS011;3539;47.982;12.238;2023-09-30T01:43:23;11.63;;;6.13;;
6997;SDS011;3539;47.982;12.238;2023-09-30T01:45:50;12.87;;;6.47;;
6997;SDS011;3539;47.982;12.238;2023-09-30T01:48:16;14.30;;;6.80;;
6997;SDS011;3539;47.982;12.238;2023-09-30T01:50:43;13.97;;;6.97;;
6997;SDS011;3539;47.982;12.238;2023-09-30T01:53:10;13.63;;;6.80;;
6997;SDS011;3539;47.982;12.238;2023-09-30T01:55:37;13.70;;;7.00;;
6997;SDS011;3539;47.982;12.238;2023-09-30T01:58:05;14.07;;;6.80;;
6997;SDS011;3539;47.982;12.238;2023-09-30T02:00:32;12.73;;;6.40;;
6997;SDS011;3539;47.982;12.238;2023-09-30T02:03:00;14.20;;;6.97;;
6997;SDS011;3539;47.982;12.238;2023-09-30T02:05:27;12.83;;;6.30;;
6997;SDS011;3539;47.982;12.238;2023-09-30T02:07:53;11.37;;;6.30;;
6997;SDS011;3539;47.982;12.238;2023-09-30T02:10:21;14.50;;;7.23;;
6997;SDS011;3539;47.982;12.238;2023-09-30T02:12:48;13.70;;;5.90;;
6997;SDS011;3539;47.982;12.238;2023-09-30T02:15:16;12.40;;;6.70;;
6997;SDS011;3539;47.982;12.238;2023-09-30T02:17:43;17.00;;;7.63;;
6997;SDS011;3539;47.982;12.238;2023-09-30T02:20:13;11.93;;;6.13;;
6997;SDS011;3539;47.982;12.238;2023-09-30T02:22:44;12.57;;;6.60;;
6997;SDS011;3539;47.982;12.238;2023-09-30T02:25:11;15.97;;;7.17;;
6997;SDS011;3539;47.982;12.238;2023-09-30T02:27:38;12.83;;;6.97;;
6997;SDS011;3539;47.982;12.238;2023-09-30T02:30:07;13.17;;;6.80;;
6997;SDS011;3539;47.982;12.238;2023-09-30T02:32:36;16.47;;;7.37;;
6997;SDS011;3539;47.982;12.238;2023-09-30T02:35:04;12.90;;;6.53;;
6997;SDS011;3539;47.982;12.238;2023-09-30T02:37:32;13.90;;;6.77;;
6997;SDS011;3539;47.982;12.238;2023-09-30T02:40:00;12.80;;;6.50;;
6997;SDS011;3539;47.982;12.238;2023-09-30T02:42:29;15.77;;;7.13;;
6997;SDS011;3539;47.982;12.238;2023-09-30T02:44:56;11.43;;;6.30;;
6997;SDS011;3539;47.982;12.238;2023-09-30T02:47:22;11.63;;;6.27;;
6997;SDS011;3539;47.982;12.238;2023-09-30T02:49:51;12.27;;;6.00;;
6997;SDS011;3539;47.982;12.238;2023-09-30T02:52:17;14.27;;;7.27;;
6997;SDS011;3539;47.982;12.238;2023-09-30T02:54:44;15.20;;;7.10;;
6997;SDS011;3539;47.982;12.238;2023-09-30T02:57:11;14.00;;;6.80;;
6997;SDS011;3539;47.982;12.238;2023-09-30T02:59:38;16.13;;;7.27;;
6997;SDS011;3539;47.982;12.238;2023-09-30T03:02:05;12.40;;;6.87;;
6997;SDS011;3539;47.982;12.238;2023-09-30T03:04:32;13.37;;;6.73;;
6997;SDS011;3539;47.982;12.238;2023-09-30T03:07:00;13.33;;;7.03;;
6997;SDS011;3539;47.982;12.238;2023-09-30T03:09:27;13.43;;;7.03;;
6997;SDS011;3539;47.982;12.238;2023-09-30T03:11:54;12.23;;;6.13;;
6997;SDS011;3539;47.982;12.238;2023-09-30T03:14:21;15.17;;;6.73;;
6997;SDS011;3539;47.982;12.238;2023-09-30T03:16:48;14.17;;;6.53;;
6997;SDS011;3539;47.982;12.238;2023-09-30T03:19:15;15.90;;;7.20;;
6997;SDS011;3539;47.982;12.238;2023-09-30T03:21:42;13.03;;;7.10;;
6997;SDS011;3539;47.982;12.238;2023-09-30T03:24:11;13.73;;;6.73;;
6997;SDS011;3539;47.982;12.238;2023-09-30T03:26:38;13.67;;;6.47;;
6997;SDS011;3539;47.982;12.238;2023-09-30T03:29:06;14.30;;;7.17;;
6997;SDS011;3539;47.982;12.238;2023-09-30T03:31:34;17.17;;;7.63;;
6997;SDS011;3539;47.982;12.238;2023-09-30T03:34:00;13.20;;;6.57;;
6997;SDS011;3539;47.982;12.238;2023-09-30T03:36:29;15.63;;;7.47;;
6997;SDS011;3539;47.982;12.238;2023-09-30T03:38:56;12.40;;;6.53;;
6997;SDS011;3539;47.982;12.238;2023-09-30T03:41:32;11.90;;;6.43;;
6997;SDS011;3539;47.982;12.238;2023-09-30T03:44:00;13.47;;;7.00;;
6997;SDS011;3539;47.982;12.238;2023-09-30T03:46:28;15.07;;;7.13;;
6997;SDS011;3539;47.982;12.238;2023-09-30T03:48:55;14.37;;;7.03;;
6997;SDS011;3539;47.982;12.238;2023-09-30T03:51:22;15.23;;;8.10;;
6997;SDS011;3539;47.982;12.238;2023-09-30T03:53:50;15.70;;;7.57;;
6997;SDS011;3539;47.982;12.238;2023-09-30T03:56:17;14.17;;;6.93;;
6997;SDS011;3539;47.982;12.238;2023-09-30T03:58:46;15.73;;;7.20;;
6997;SDS011;3539;47.982;12.238;2023-09-30T04:01:13;13.67;;;7.00;;
6997;SDS011;3539;47.982;12.238;2023-09-30T04:03:41;15.40;;;7.40;;
6997;SDS011;3539;47.982;12.238;2023-09-30T04:06:09;13.40;;;7.20;;
6997;SDS011;3539;47.982;12.238;2023-09-30T04:08:37;13.07;;;6.50;;
6997;SDS011;3539;47.982;12.238;2023-09-30T04:11:04;14.20;;;7.57;;
6997;SDS011;3539;47.982;12.238;2023-09-30T04:13:31;14.23;;;7.63;;
6997;SDS011;3539;47.982;12.238;2023-09-30T04:15:59;15.07;;;7.10;;
6997;SDS011;3539;47.982;12.238;2023-09-30T04:18:26;15.80;;;7.33;;
6997;SDS011;3539;47.982;12.238;2023-09-30T04:20:53;13.10;;;7.10;;
6997;SDS011;3539;47.982;12.238;2023-09-30T04:23:20;14.60;;;7.33;;
6997;SDS011;3539;47.982;12.238;2023-09-30T04:25:47;12.70;;;6.80;;
6997;SDS011;3539;47.982;12.238;2023-09-30T04:28:14;11.73;;;6.90;;
6997;SDS011;3539;47.982;12.238;2023-09-30T04:30:45;16.30;;;7.53;;
6997;SDS011;3539;47.982;12.238;2023-09-30T04:33:14;15.80;;;7.73;;
6997;SDS011;3539;47.982;12.238;2023-09-30T04:35:42;15.00;;;7.93;;
6997;SDS011;3539;47.982;12.238;2023-09-30T04:38:09;12.67;;;7.07;;
6997;SDS011;3539;47.982;12.238;2023-09-30T04:40:36;13.30;;;7.27;;
6997;SDS011;3539;47.982;12.238;2023-09-30T04:43:03;15.03;;;6.97;;
6997;SDS011;3539;47.982;12.238;2023-09-30T04:45:30;15.03;;;7.53;;
6997;SDS011;3539;47.982;12.238;2023-09-30T04:47:58;17.13;;;8.13;;
6997;SDS011;3539;47.982;12.238;2023-09-30T04:50:28;13.73;;;7.17;;
6997;SDS011;3539;47.982;12.238;2023-09-30T04:52:55;14.93;;;7.50;;
6997;SDS011;3539;47.982;12.238;2023-09-30T04:55:22;14.70;;;7.40;;
6997;SDS011;3539;47.982;12.238;2023-09-30T04:57:49;15.13;;;7.60;;
6997;SDS011;3539;47.982;12.238;2023-09-30T05:00:17;15.10;;;7.47;;
6997;SDS011;3539;47.982;12.238;2023-09-30T05:02:47;16.00;;;6.90;;
6997;SDS011;3539;47.982;12.238;2023-09-30T05:05:14;15.25;;;7.85;;
6997;SDS011;3539;47.982;12.238;2023-09-30T05:07:42;11.27;;;6.37;;
6997;SDS011;3539;47.982;12.238;2023-09-30T05:10:09;13.60;;;7.10;;
6997;SDS011;3539;47.982;12.238;2023-09-30T05:12:38;13.43;;;7.40;;
6997;SDS011;3539;47.982;12.238;2023-09-30T05:15:10;12.33;;;6.70;;
6997;SDS011;3539;47.982;12.238;2023-09-30T05:17:38;16.83;;;7.03;;
6997;SDS011;3539;47.982;12.238;2023-09-30T05:20:05;14.27;;;7.70;;
6997;SDS011;3539;47.982;12.238;2023-09-30T05:22:32;18.75;;;8.27;;
6997;SDS011;3539;47.982;12.238;2023-09-30T05:25:01;15.00;;;7.60;;
6997;SDS011;3539;47.982;12.238;2023-09-30T05:27:28;15.90;;;7.97;;
6997;SDS011;3539;47.982;12.238;2023-09-30T05:29:54;17.80;;;8.90;;
6997;SDS011;3539;47.982;12.238;2023-09-30T05:32:21;12.47;;;7.43;;
6997;SDS011;3539;47.982;12.238;2023-09-30T05:34:48;14.30;;;7.33;;
6997;SDS011;3539;47.982;12.238;2023-09-30T05:37:15;14.83;;;8.33;;
6997;SDS011;3539;47.982;12.238;2023-09-30T05:39:43;15.60;;;8.25;;
6997;SDS011;3539;47.982;12.238;2023-09-30T05:42:12;16.83;;;8.17;;
6997;SDS011;3539;47.982;12.238;2023-09-30T05:44:39;16.13;;;7.43;;
6997;SDS011;3539;47.982;12.238;2023-09-30T05:47:06;16.70;;;8.27;;
6997;SDS011;3539;47.982;12.238;2023-09-30T05:49:33;15.30;;;7.70;;
6997;SDS011;3539;47.982;12.238;2023-09-30T05:52:01;15.70;;;7.53;;
6997;SDS011;3539;47.982;12.238;2023-09-30T05:54:28;14.67;;;8.07;;
6997;SDS011;3539;47.982;12.238;2023-09-30T05:56:55;15.47;;;8.30;;
6997;SDS011;3539;47.982;12.238;2023-09-30T05:59:23;14.27;;;7.37;;
6997;SDS011;3539;47.982;12.238;2023-09-30T06:01:51;13.10;;;7.07;;
6997;SDS011;3539;47.982;12.238;2023-09-30T06:04:18;14.97;;;7.90;;
6997;SDS011;3539;47.982;12.238;2023-09-30T06:06:46;16.40;;;7.83;;
6997;SDS011;3539;47.982;12.238;2023-09-30T06:09:13;17.57;;;8.90;;
6997;SDS011;3539;47.982;12.238;2023-09-30T06:11:40;16.53;;;7.57;;
6997;SDS011;3539;47.982;12.238;2023-09-30T06:14:07;14.00;;;7.13;;
6997;SDS011;3539;47.982;12.238;2023-09-30T06:16:35;16.97;;;7.70;;
6997;SDS011;3539;47.982;12.238;2023-09-30T06:19:02;15.73;;;8.40;;
6997;SDS011;3539;47.982;12.238;2023-09-30T06:21:29;14.20;;;7.37;;
6997;SDS011;3539;47.982;12.238;2023-09-30T06:23:59;16.37;;;8.00;;
6997;SDS011;3539;47.982;12.238;2023-09-30T06:26:26;11.90;;;6.73;;
6997;SDS011;3539;47.982;12.238;2023-09-30T06:28:54;17.33;;;7.73;;
6997;SDS011;3539;47.982;12.238;2023-09-30T06:31:21;13.77;;;6.90;;
6997;SDS011;3539;47.982;12.238;2023-09-30T06:33:50;13.60;;;6.80;;
6997;SDS011;3539;47.982;12.238;2023-09-30T06:36:17;12.87;;;6.50;;
6997;SDS011;3539;47.982;12.238;2023-09-30T06:38:46;13.60;;;6.40;;
6997;SDS011;3539;47.982;12.238;2023-09-30T06:41:15;13.87;;;6.80;;
6997;SDS011;3539;47.982;12.238;2023-09-30T06:43:43;12.87;;;6.87;;
6997;SDS011;3539;47.982;12.238;2023-09-30T06:46:09;12.33;;;6.40;;
6997;SDS011;3539;47.982;12.238;2023-09-30T06:48:38;13.53;;;7.53;;
6997;SDS011;3539;47.982;12.238;2023-09-30T06:51:07;16.70;;;7.97;;
6997;SDS011;3539;47.982;12.238;2023-09-30T06:53:35;15.03;;;7.30;;
6997;SDS011;3539;47.982;12.238;2023-09-30T06:56:04;14.63;;;6.97;;
6997;SDS011;3539;47.982;12.238;2023-09-30T06:58:31;12.50;;;6.77;;
6997;SDS011;3539;47.982;12.238;2023-09-30T07:00:58;16.33;;;7.63;;
6997;SDS011;3539;47.982;12.238;2023-09-30T07:03:25;13.30;;;7.17;;
6997;SDS011;3539;47.982;12.238;2023-09-30T07:05:52;14.67;;;7.43;;
6997;SDS011;3539;47.982;12.238;2023-09-30T07:08:20;15.43;;;7.03;;
6997;SDS011;3539;47.982;12.238;2023-09-30T07:10:47;14.67;;;7.40;;
6997;SDS011;3539;47.982;12.238;2023-09-30T07:13:15;14.00;;;7.10;;
6997;SDS011;3539;47.982;12.238;2023-09-30T07:15:43;13.57;;;7.30;;
6997;SDS011;3539;47.982;12.238;2023-09-30T07:18:09;14.23;;;6.83;;
6997;SDS011;3539;47.982;12.238;2023-09-30T07:20:37;12.13;;;6.33;;
6997;SDS011;3539;47.982;12.238;2023-09-30T07:23:04;13.73;;;6.70;;
6997;SDS011;3539;47.982;12.238;2023-09-30T07:25:32;11.60;;;6.50;;
6997;SDS011;3539;47.982;12.238;2023-09-30T07:27:59;14.13;;;6.53;;
6997;SDS011;3539;47.982;12.238;2023-09-30T07:30:26;11.13;;;6.37;;
6997;SDS011;3539;47.982;12.238;2023-09-30T07:32:53;12.17;;;6.27;;
6997;SDS011;3539;47.982;12.238;2023-09-30T07:35:20;14.07;;;6.90;;
6997;SDS011;3539;47.982;12.238;2023-09-30T07:37:47;13.20;;;6.53;;
6997;SDS011;3539;47.982;12.238;2023-09-30T07:40:17;12.20;;;6.63;;
6997;SDS011;3539;47.982;12.238;2023-09-30T07:42:45;12.20;;;6.40;;
6997;SDS011;3539;47.982;12.238;2023-09-30T07:45:12;13.55;;;6.80;;
6997;SDS011;3539;47.982;12.238;2023-09-30T07:47:42;16.33;;;6.97;;
6997;SDS011;3539;47.982;12.238;2023-09-30T07:50:11;13.30;;;6.70;;
6997;SDS011;3539;47.982;12.238;2023-09-30T07:52:37;12.27;;;6.63;;
6997;SDS011;3539;47.982;12.238;2023-09-30T07:55:06;11.37;;;6.03;;
6997;SDS011;3539;47.982;12.238;2023-09-30T07:57:34;12.93;;;6.73;;
6997;SDS011;3539;47.982;12.238;2023-09-30T08:00:02;12.67;;;6.40;;
6997;SDS011;3539;47.982;12.238;2023-09-30T08:02:33;12.97;;;6.33;;
6997;SDS011;3539;47.982;12.238;2023-09-30T08:05:00;12.37;;;6.13;;
6997;SDS011;3539;47.982;12.238;2023-09-30T08:07:27;12.60;;;5.50;;
6997;SDS011;3539;47.982;12.238;2023-09-30T08:09:54;14.33;;;6.30;;
6997;SDS011;3539;47.982;12.238;2023-09-30T08:12:20;12.83;;;6.20;;
6997;SDS011;3539;47.982;12.238;2023-09-30T08:14:47;11.50;;;6.20;;
6997;SDS011;3539;47.982;12.238;2023-09-30T08:17:18;15.07;;;6.73;;
6997;SDS011;3539;47.982;12.238;2023-09-30T08:19:44;12.65;;;6.68;;
6997;SDS011;3539;47.982;12.238;2023-09-30T08:22:12;10.93;;;6.20;;
6997;SDS011;3539;47.982;12.238;2023-09-30T08:24:39;13.30;;;6.47;;
6997;SDS011;3539;47.982;12.238;2023-09-30T08:27:06;13.87;;;6.33;;
6997;SDS011;3539;47.982;12.238;2023-09-30T08:29:33;10.30;;;5.53;;
6997;SDS011;3539;47.982;12.238;2023-09-30T08:32:01;12.17;;;6.63;;
6997;SDS011;3539;47.982;12.238;2023-09-30T08:34:30;13.37;;;6.47;;
6997;SDS011;3539;47.982;12.238;2023-09-30T08:36:57;9.13;;;5.37;;
6997;SDS011;3539;47.982;12.238;2023-09-30T08:39:24;12.20;;;6.37;;
6997;SDS011;3539;47.982;12.238;2023-09-30T08:41:51;15.70;;;6.90;;
6997;SDS011;3539;47.982;12.238;2023-09-30T08:44:19;13.17;;;5.77;;
6997;SDS011;3539;47.982;12.238;2023-09-30T08:46:46;13.67;;;6.40;;
6997;SDS011;3539;47.982;12.238;2023-09-30T08:49:13;10.47;;;5.50;;
6997;SDS011;3539;47.982;12.238;2023-09-30T08:51:43;12.23;;;5.63;;
6997;SDS011;3539;47.982;12.238;2023-09-30T08:54:10;14.33;;;6.20;;
6997;SDS011;3539;47.982;12.238;2023-09-30T08:56:37;12.90;;;6.53;;
6997;SDS011;3539;47.982;12.238;2023-09-30T08:59:05;10.40;;;5.77;;
6997;SDS011;3539;47.982;12.238;2023-09-30T09:01:32;12.90;;;6.30;;
6997;SDS011;3539;47.982;12.238;2023-09-30T09:04:00;10.67;;;5.50;;
6997;SDS011;3539;47.982;12.238;2023-09-30T09:06:28;11.70;;;5.80;;
6997;SDS011;3539;47.982;12.238;2023-09-30T09:08:59;10.73;;;5.27;;
6997;SDS011;3539;47.982;12.238;2023-09-30T09:11:39;11.17;;;5.80;;
6997;SDS011;3539;47.982;12.238;2023-09-30T09:14:06;9.90;;;5.83;;
6997;SDS011;3539;47.982;12.238;2023-09-30T09:16:33;13.40;;;6.73;;
6997;SDS011;3539;47.982;12.238;2023-09-30T09:19:04;15.03;;;6.60;;
6997;SDS011;3539;47.982;12.238;2023-09-30T09:21:39;10.03;;;5.40;;
6997;SDS011;3539;47.982;12.238;2023-09-30T09:24:27;13.33;;;6.10;;
6997;SDS011;3539;47.982;12.238;2023-09-30T09:27:03;10.27;;;5.73;;
6997;SDS011;3539;47.982;12.238;2023-09-30T09:29:30;11.20;;;6.20;;
6997;SDS011;3539;47.982;12.238;2023-09-30T09:32:06;11.47;;;5.67;;
6997;SDS011;3539;47.982;12.238;2023-09-30T09:34:33;13.83;;;6.10;;
6997;SDS011;3539;47.982;12.238;2023-09-30T09:37:00;10.47;;;5.73;;
6997;SDS011;3539;47.982;12.238;2023-09-30T09:39:40;11.23;;;6.43;;
6997;SDS011;3539;47.982;12.238;2023-09-30T09:42:23;15.37;;;7.03;;
6997;SDS011;3539;47.982;12.238;2023-09-30T09:44:51;11.97;;;6.30;;
6997;SDS011;3539;47.982;12.238;2023-09-30T09:47:19;12.83;;;7.27;;
6997;SDS011;3539;47.982;12.238;2023-09-30T09:49:47;11.83;;;6.33;;
6997;SDS011;3539;47.982;12.238;2023-09-30T09:52:14;12.07;;;6.50;;
6997;SDS011;3539;47.982;12.238;2023-09-30T09:54:43;12.50;;;6.73;;
6997;SDS011;3539;47.982;12.238;2023-09-30T09:57:09;11.80;;;7.07;;
6997;SDS011;3539;47.982;12.238;2023-09-30T09:59:36;19.37;;;6.97;;
6997;SDS011;3539;47.982;12.238;2023-09-30T10:02:04;13.43;;;6.37;;
6997;SDS011;3539;47.982;12.238;2023-09-30T10:04:36;11.53;;;6.10;;
6997;SDS011;3539;47.982;12.238;2023-09-30T10:07:03;10.17;;;4.97;;
6997;SDS011;3539;47.982;12.238;2023-09-30T10:09:31;11.43;;;5.87;;
6997;SDS011;3539;47.982;12.238;2023-09-30T10:12:03;8.97;;;4.80;;
6997;SDS011;3539;47.982;12.238;2023-09-30T10:14:32;10.23;;;4.67;;
6997;SDS011;3539;47.982;12.238;2023-09-30T10:17:01;8.63;;;4.93;;
6997;SDS011;3539;47.982;12.238;2023-09-30T10:19:28;9.67;;;5.10;;
6997;SDS011;3539;47.982;12.238;2023-09-30T10:22:19;11.07;;;5.40;;
6997;SDS011;3539;47.982;12.238;2023-09-30T10:24:47;9.73;;;5.00;;
6997;SDS011;3539;47.982;12.238;2023-09-30T10:27:34;10.47;;;4.83;;
6997;SDS011;3539;47.982;12.238;2023-09-30T10:30:09;9.63;;;5.10;;
6997;SDS011;3539;47.982;12.238;2023-09-30T10:35:43;10.13;;;4.83;;
6997;SDS011;3539;47.982;12.238;2023-09-30T10:41:04;9.33;;;5.23;;
6997;SDS011;3539;47.982;12.238;2023-09-30T10:43:35;9.10;;;5.37;;
6997;SDS011;3539;47.982;12.238;2023-09-30T10:46:03;12.17;;;5.93;;
6997;SDS011;3539;47.982;12.238;2023-09-30T10:48:33;12.13;;;5.77;;
6997;SDS011;3539;47.982;12.238;2023-09-30T10:51:10;12.80;;;6.47;;
6997;SDS011;3539;47.982;12.238;2023-09-30T10:53:41;13.40;;;6.27;;
6997;SDS011;3539;47.982;12.238;2023-09-30T10:56:10;12.67;;;6.67;;
6997;SDS011;3539;47.982;12.238;2023-09-30T10:58:41;11.27;;;6.10;;
6997;SDS011;3539;47.982;12.238;2023-09-30T11:01:09;10.03;;;5.63;;
6997;SDS011;3539;47.982;12.238;2023-09-30T11:03:36;11.30;;;5.90;;
6997;SDS011;3539;47.982;12.238;2023-09-30T11:06:03;14.17;;;7.00;;
6997;SDS011;3539;47.982;12.238;2023-09-30T11:08:30;13.50;;;5.93;;
6997;SDS011;3539;47.982;12.238;2023-09-30T11:10:57;11.20;;;6.03;;
6997;SDS011;3539;47.982;12.238;2023-09-30T11:13:30;15.83;;;7.37;;
6997;SDS011;3539;47.982;12.238;2023-09-30T11:16:03;17.63;;;7.43;;
6997;SDS011;3539;47.982;12.238;2023-09-30T11:18:31;14.37;;;6.67;;
6997;SDS011;3539;47.982;12.238;2023-09-30T11:21:05;11.30;;;5.63;;
6997;SDS011;3539;47.982;12.238;2023-09-30T11:23:33;17.23;;;7.37;;
6997;SDS011;3539;47.982;12.238;2023-09-30T11:26:00;12.20;;;6.33;;
6997;SDS011;3539;47.982;12.238;2023-09-30T11:28:35;14.20;;;6.20;;
6997;SDS011;3539;47.982;12.238;2023-09-30T11:31:06;11.07;;;6.33;;
6997;SDS011;3539;47.982;12.238;2023-09-30T11:36:18;15.07;;;8.03;;
6997;SDS011;3539;47.982;12.238;2023-09-30T11:38:47;14.53;;;7.07;;
6997;SDS011;3539;47.982;12.238;2023-09-30T11:41:15;16.13;;;7.63;;
6997;SDS011;3539;47.982;12.238;2023-09-30T11:46:28;18.00;;;8.47;;
6997;SDS011;3539;47.982;12.238;2023-09-30T11:48:56;12.43;;;6.67;;
6997;SDS011;3539;47.982;12.238;2023-09-30T11:51:26;18.43;;;7.73;;
6997;SDS011;3539;47.982;12.238;2023-09-30T11:53:53;14.37;;;7.40;;
6997;SDS011;3539;47.982;12.238;2023-09-30T11:56:21;16.23;;;7.80;;
6997;SDS011;3539;47.982;12.238;2023-09-30T11:58:54;16.67;;;8.30;;
6997;SDS011;3539;47.982;12.238;2023-09-30T12:01:22;13.73;;;6.97;;
6997;SDS011;3539;47.982;12.238;2023-09-30T12:03:52;13.17;;;7.57;;
6997;SDS011;3539;47.982;12.238;2023-09-30T12:06:21;15.47;;;7.80;;
6997;SDS011;3539;47.982;12.238;2023-09-30T12:08:48;17.63;;;8.20;;
6997;SDS011;3539;47.982;12.238;2023-09-30T12:11:16;14.70;;;8.37;;
6997;SDS011;3539;47.982;12.238;2023-09-30T12:13:44;17.03;;;8.80;;
6997;SDS011;3539;47.982;12.238;2023-09-30T12:16:13;14.80;;;8.17;;
6997;SDS011;3539;47.982;12.238;2023-09-30T12:18:40;14.30;;;7.60;;
6997;SDS011;3539;47.982;12.238;2023-09-30T12:21:10;16.80;;;8.40;;
6997;SDS011;3539;47.982;12.238;2023-09-30T12:23:38;18.13;;;8.77;;
6997;SDS011;3539;47.982;12.238;2023-09-30T12:26:08;19.77;;;9.80;;
6997;SDS011;3539;47.982;12.238;2023-09-30T12:28:37;17.33;;;9.07;;
6997;SDS011;3539;47.982;12.238;2023-09-30T12:31:05;18.33;;;9.00;;
6997;SDS011;3539;47.982;12.238;2023-09-30T12:33:32;19.20;;;9.27;;
6997;SDS011;3539;47.982;12.238;2023-09-30T12:36:00;19.73;;;9.90;;
6997;SDS011;3539;47.982;12.238;2023-09-30T12:38:28;18.47;;;9.07;;
6997;SDS011;3539;47.982;12.238;2023-09-30T12:40:56;19.97;;;9.80;;
6997;SDS011;3539;47.982;12.238;2023-09-30T12:43:23;18.10;;;9.40;;
6997;SDS011;3539;47.982;12.238;2023-09-30T12:45:50;20.03;;;9.53;;
6997;SDS011;3539;47.982;12.238;2023-09-30T12:48:17;20.47;;;9.77;;
6997;SDS011;3539;47.982;12.238;2023-09-30T12:50:45;18.83;;;10.10;;
6997;SDS011;3539;47.982;12.238;2023-09-30T12:53:13;19.00;;;9.83;;
6997;SDS011;3539;47.982;12.238;2023-09-30T12:55:42;21.80;;;10.47;;
6997;SDS011;3539;47.982;12.238;2023-09-30T12:58:09;20.00;;;10.10;;
6997;SDS011;3539;47.982;12.238;2023-09-30T13:00:38;20.50;;;10.83;;
6997;SDS011;3539;47.982;12.238;2023-09-30T13:03:05;20.38;;;10.55;;
6997;SDS011;3539;47.982;12.238;2023-09-30T13:05:33;21.50;;;9.70;;
6997;SDS011;3539;47.982;12.238;2023-09-30T13:08:00;18.33;;;9.37;;
6997;SDS011;3539;47.982;12.238;2023-09-30T13:10:28;19.10;;;9.17;;
6997;SDS011;3539;47.982;12.238;2023-09-30T13:12:57;15.87;;;8.33;;
6997;SDS011;3539;47.982;12.238;2023-09-30T13:15:25;19.60;;;8.97;;
6997;SDS011;3539;47.982;12.238;2023-09-30T13:17:54;14.80;;;8.10;;
6997;SDS011;3539;47.982;12.238;2023-09-30T13:20:21;17.73;;;8.47;;
6997;SDS011;3539;47.982;12.238;2023-09-30T13:22:49;15.77;;;7.93;;
6997;SDS011;3539;47.982;12.238;2023-09-30T13:25:16;15.53;;;7.93;;
6997;SDS011;3539;47.982;12.238;2023-09-30T13:27:43;18.87;;;9.40;;
6997;SDS011;3539;47.982;12.238;2023-09-30T13:30:12;16.67;;;8.73;;
6997;SDS011;3539;47.982;12.238;2023-09-30T13:32:39;18.37;;;9.13;;
6997;SDS011;3539;47.982;12.238;2023-09-30T13:35:07;17.63;;;9.13;;
6997;SDS011;3539;47.982;12.238;2023-09-30T13:37:35;18.90;;;9.30;;
6997;SDS011;3539;47.982;12.238;2023-09-30T13:40:02;18.97;;;9.27;;
6997;SDS011;3539;47.982;12.238;2023-09-30T13:42:33;15.67;;;8.13;;
6997;SDS011;3539;47.982;12.238;2023-09-30T13:45:01;16.40;;;8.07;;
6997;SDS011;3539;47.982;12.238;2023-09-30T13:47:30;16.00;;;8.83;;
6997;SDS011;3539;47.982;12.238;2023-09-30T13:49:57;15.13;;;8.10;;
6997;SDS011;3539;47.982;12.238;2023-09-30T13:52:24;15.03;;;7.93;;
6997;SDS011;3539;47.982;12.238;2023-09-30T13:54:52;13.67;;;7.07;;
6997;SDS011;3539;47.982;12.238;2023-09-30T13:57:20;16.07;;;7.70;;
6997;SDS011;3539;47.982;12.238;2023-09-30T13:59:48;13.23;;;6.80;;
6997;SDS011;3539;47.982;12.238;2023-09-30T14:02:15;15.40;;;7.57;;
6997;SDS011;3539;47.982;12.238;2023-09-30T14:04:44;14.93;;;7.43;;
6997;SDS011;3539;47.982;12.238;2023-09-30T14:07:11;13.87;;;6.70;;
6997;SDS011;3539;47.982;12.238;2023-09-30T14:09:39;13.50;;;7.10;;
6997;SDS011;3539;47.982;12.238;2023-09-30T14:12:06;11.83;;;6.30;;
6997;SDS011;3539;47.982;12.238;2023-09-30T14:14:33;13.43;;;6.67;;
6997;SDS011;3539;47.982;12.238;2023-09-30T14:17:01;10.77;;;5.83;;
6997;SDS011;3539;47.982;12.238;2023-09-30T14:19:33;13.70;;;5.97;;
6997;SDS011;3539;47.982;12.238;2023-09-30T14:22:02;12.20;;;6.50;;
6997;SDS011;3539;47.982;12.238;2023-09-30T14:24:30;13.10;;;6.70;;
6997;SDS011;3539;47.982;12.238;2023-09-30T14:26:58;11.40;;;6.37;;
6997;SDS011;3539;47.982;12.238;2023-09-30T14:29:25;12.80;;;6.07;;
6997;SDS011;3539;47.982;12.238;2023-09-30T14:31:53;12.53;;;6.30;;
6997;SDS011;3539;47.982;12.238;2023-09-30T14:34:20;11.23;;;6.10;;
6997;SDS011;3539;47.982;12.238;2023-09-30T14:36:47;13.03;;;7.03;;
6997;SDS011;3539;47.982;12.238;2023-09-30T14:39:15;11.43;;;6.17;;
6997;SDS011;3539;47.982;12.238;2023-09-30T14:41:42;11.20;;;6.00;;
6997;SDS011;3539;47.982;12.238;2023-09-30T14:44:09;11.33;;;5.67;;
6997;SDS011;3539;47.982;12.238;2023-09-30T14:46:37;13.27;;;6.57;;
6997;SDS011;3539;47.982;12.238;2023-09-30T14:49:04;11.60;;;6.30;;
6997;SDS011;3539;47.982;12.238;2023-09-30T14:51:32;11.80;;;5.93;;
6997;SDS011;3539;47.982;12.238;2023-09-30T14:53:59;13.83;;;7.00;;
6997;SDS011;3539;47.982;12.238;2023-09-30T14:56:27;13.20;;;6.57;;
6997;SDS011;3539;47.982;12.238;2023-09-30T14:58:54;13.20;;;6.83;;
6997;SDS011;3539;47.982;12.238;2023-09-30T15:01:21;10.63;;;6.17;;
6997;SDS011;3539;47.982;12.238;2023-09-30T15:03:48;11.37;;;6.20;;